Time;durP1;ratioP1;P1;durP2;ratioP2;P2;SDS_P1;SDS_P2;PMS_P1;PMS_P2;Temp;Humidity;BMP_temperature;BMP_pressure;BME280_temperature;BME280_humidity;BME280_pressure;Samples;Min_cycle;Max_cycle;Signal;HPM_P1;HPM_P2
2022/05/24 00:04:24;;;;;;;22.17;13.02;;;;;;;14.21;85.10;100060.44;10451816;28;20136;-84
2022/05/24 00:09:26;;;;;;;20.23;12.35;;;;;;;14.07;85.04;100057.88;10451716;28;20104;-84
2022/05/24 00:19:49;;;;;;;20.95;12.45;;;;;;;14.19;85.32;100063.03;10421821;28;20054;-86
2022/05/24 00:24:51;;;;;;;22.40;13.45;;;;;;;14.36;84.73;100059.53;10422328;28;20041;-85
2022/05/24 00:29:53;;;;;;;22.85;13.57;;;;;;;14.11;85.51;100065.66;10420466;28;20049;-87
2022/05/24 00:34:54;;;;;;;21.77;13.38;;;;;;;14.07;86.22;100070.84;10436268;28;20056;-87
2022/05/24 00:39:56;;;;;;;21.92;13.73;;;;;;;14.12;86.45;100067.38;10420309;28;20551;-88
2022/05/24 00:45:11;;;;;;;21.23;14.10;;;;;;;14.24;85.72;100061.31;10420215;28;20404;-87
2022/05/24 00:50:27;;;;;;;21.02;14.20;;;;;;;14.20;85.74;100048.38;10422127;28;20049;-89
2022/05/24 00:55:38;;;;;;;24.17;14.80;;;;;;;14.07;86.39;100026.81;10418472;28;20053;-88
2022/05/24 01:00:40;;;;;;;26.02;15.43;;;;;;;14.14;86.36;100045.78;10418139;28;20038;-88
2022/05/24 01:05:45;;;;;;;24.17;14.48;;;;;;;14.12;85.79;100040.59;10381234;28;20046;-88
2022/05/24 01:10:52;;;;;;;24.65;15.80;;;;;;;14.33;85.90;100044.00;10377424;28;20046;-87
2022/05/24 01:15:54;;;;;;;26.83;17.00;;;;;;;14.25;85.87;100037.13;10377170;28;20100;-87
2022/05/24 01:21:05;;;;;;;30.00;17.98;;;;;;;14.14;85.77;100038.88;10376753;28;20245;-88
2022/05/24 01:26:16;;;;;;;28.85;17.35;;;;;;;14.34;85.33;100043.13;10375988;28;20053;-87
2022/05/24 01:31:19;;;;;;;31.60;19.33;;;;;;;14.34;85.38;100037.94;10375599;28;20042;-86
2022/05/24 01:36:24;;;;;;;40.88;20.73;;;;;;;14.44;84.96;100026.69;10377296;28;20050;-85
2022/05/24 01:41:47;;;;;;;35.35;21.35;;;;;;;14.36;84.45;100033.63;10379346;28;20580;-86
2022/05/24 01:46:49;;;;;;;37.58;20.52;;;;;;;14.24;84.73;100047.47;10358942;28;20536;-85
2022/05/24 01:52:06;;;;;;;37.45;20.73;;;;;;;14.42;82.81;100042.25;10375433;28;20053;-85
2022/05/24 01:57:13;;;;;;;46.75;21.25;;;;;;;14.27;82.54;100034.53;10366636;28;20117;-87
2022/05/24 02:02:17;;;;;;;52.08;24.92;;;;;;;14.40;81.53;100035.34;10419316;28;20148;-84
2022/05/24 02:07:23;;;;;;;41.45;23.70;;;;;;;14.34;81.17;100031.03;10417276;28;20077;-85
2022/05/24 02:12:31;;;;;;;39.45;23.45;;;;;;;14.26;81.34;100031.06;10417730;28;20448;-85
2022/05/24 02:17:44;;;;;;;44.90;25.38;;;;;;;14.35;81.84;100034.47;10416925;28;20477;-84
2022/05/24 02:22:48;;;;;;;42.95;25.70;;;;;;;14.01;83.02;100042.34;10398327;28;20465;-85
2022/05/24 02:27:50;;;;;;;42.33;24.55;;;;;;;14.02;83.01;100038.91;10415681;28;20049;-84
2022/05/24 02:32:52;;;;;;;46.33;24.58;;;;;;;13.83;83.07;100038.94;10415600;28;20049;-85
2022/05/24 02:37:56;;;;;;;38.13;23.48;;;;;;;13.76;82.82;100042.38;10416572;28;20400;-85
2022/05/24 02:42:58;;;;;;;38.08;22.92;;;;;;;13.80;81.79;100044.13;10416708;28;20469;-86
2022/05/24 02:47:59;;;;;;;37.83;20.38;;;;;;;13.75;81.42;100046.72;10434636;28;20046;-87
2022/05/24 02:53:01;;;;;;;33.05;19.42;;;;;;;13.67;81.27;100053.63;10420176;28;20042;-86
2022/05/24 02:58:04;;;;;;;32.40;19.58;;;;;;;13.72;80.90;100058.81;10421613;28;20042;-76
2022/05/24 03:03:05;;;;;;;28.17;17.33;;;;;;;13.74;81.33;100070.00;10414633;28;20053;-76
2022/05/24 03:18:48;;;;;;;22.70;11.70;;;;;;;13.28;81.43;100076.88;10415490;28;19925;-76
2022/05/24 03:23:51;;;;;;;18.50;10.82;;;;;;;13.29;80.33;100068.22;10415408;28;20140;-75
2022/05/24 03:28:52;;;;;;;20.35;10.13;;;;;;;13.13;79.70;100057.00;10397634;28;20092;-76
2022/05/24 03:33:55;;;;;;;15.82;8.25;;;;;;;13.13;79.24;100061.31;10416356;28;20388;-76
2022/05/24 03:39:02;;;;;;;17.65;9.60;;;;;;;12.99;80.36;100080.22;10414671;28;20144;-77
2022/05/24 03:44:03;;;;;;;16.77;9.02;;;;;;;12.92;80.47;100072.47;10414324;28;20148;-76
2022/05/24 03:49:05;;;;;;;13.27;8.15;;;;;;;12.85;80.55;100092.25;10413616;28;20042;-76
2022/05/24 03:54:07;;;;;;;14.27;7.35;;;;;;;12.91;80.16;100084.53;10414864;28;20095;-76
2022/05/24 03:59:09;;;;;;;18.08;7.22;;;;;;;13.00;79.73;100097.47;10413524;28;20050;-76
2022/05/24 04:04:11;;;;;;;14.82;6.97;;;;;;;13.07;79.49;100100.09;10414567;28;20049;-77
2022/05/24 04:09:12;;;;;;;11.80;6.30;;;;;;;12.85;79.39;100102.59;10413594;28;20133;-77
2022/05/24 04:14:14;;;;;;;15.80;5.78;;;;;;;13.14;78.65;100094.94;10396914;28;20053;-76
2022/05/24 04:19:16;;;;;;;11.70;5.97;;;;;;;13.05;79.02;100109.56;10413125;28;20045;-77
2022/05/24 04:24:17;;;;;;;13.23;6.00;;;;;;;12.95;78.15;100114.69;10413040;28;20049;-77
2022/05/24 04:29:20;;;;;;;10.82;5.72;;;;;;;12.90;77.87;100105.19;10413127;28;20115;-77
2022/05/24 04:34:21;;;;;;;11.65;7.15;;;;;;;12.86;77.96;100117.25;10415524;28;20447;-76
2022/05/24 04:39:23;;;;;;;18.30;6.85;;;;;;;12.87;77.78;100131.91;10419951;28;20052;-77
2022/05/24 04:44:25;;;;;;;14.65;7.10;;;;;;;12.89;78.44;100150.88;10420156;28;20042;-77
2022/05/24 04:49:27;;;;;;;16.05;6.78;;;;;;;12.87;78.25;100157.75;10419563;28;20508;-77
2022/05/24 04:54:28;;;;;;;11.85;6.90;;;;;;;12.76;78.25;100154.28;10419803;28;20050;-77
2022/05/24 04:59:30;;;;;;;14.63;7.78;;;;;;;12.81;78.69;100149.97;10403192;28;20049;-76
2022/05/24 05:04:32;;;;;;;15.60;8.27;;;;;;;12.93;78.86;100147.44;10419242;28;20054;-78
2022/05/24 05:09:34;;;;;;;14.00;8.80;;;;;;;12.78;78.32;100152.53;10420366;28;20045;-77
2022/05/24 05:14:38;;;;;;;18.63;9.82;;;;;;;12.90;77.98;100173.28;10418985;28;20489;-77
2022/05/24 05:19:44;;;;;;;16.83;8.70;;;;;;;12.84;78.09;100158.59;10421089;28;20064;-77
2022/05/24 05:24:51;;;;;;;14.55;9.50;;;;;;;13.16;77.84;100141.47;10418958;28;20041;-77
2022/05/24 05:35:13;;;;;;;16.95;8.70;;;;;;;12.73;78.65;100164.59;10418255;28;20485;-76
2022/05/24 05:40:15;;;;;;;12.70;7.60;;;;;;;12.88;79.04;100164.66;10417696;28;20441;-76
2022/05/24 05:45:17;;;;;;;16.83;7.75;;;;;;;13.12;78.39;100173.38;10417602;28;20091;-76
2022/05/24 05:50:20;;;;;;;15.15;7.82;;;;;;;12.83;78.29;100182.72;10418131;28;20103;-77
2022/05/24 05:55:21;;;;;;;17.23;8.68;;;;;;;12.78;78.98;100199.06;10401077;28;20045;-77
2022/05/24 06:00:23;;;;;;;12.88;8.98;;;;;;;13.10;78.40;100193.19;10418287;28;20104;-77
2022/05/24 06:05:25;;;;;;;18.08;10.00;;;;;;;12.83;78.21;100215.47;10416682;28;20095;-76
2022/05/24 06:10:28;;;;;;;18.75;9.80;;;;;;;12.86;79.02;100218.06;10433128;28;20463;-76
2022/05/24 06:15:31;;;;;;;18.98;10.63;;;;;;;13.00;78.53;100211.25;10416621;28;20096;-77
2022/05/24 06:20:33;;;;;;;18.63;9.32;;;;;;;12.86;78.42;100233.56;10416344;28;20095;-75
2022/05/24 06:25:35;;;;;;;17.80;10.88;;;;;;;12.89;78.40;100233.59;10417697;28;20064;-77
2022/05/24 06:30:37;;;;;;;23.10;10.35;;;;;;;12.80;78.93;100257.69;10416598;28;20042;-78
2022/05/24 06:35:40;;;;;;;19.92;9.73;;;;;;;12.81;78.22;100261.13;10415640;28;20056;-76
2022/05/24 06:40:42;;;;;;;21.23;11.00;;;;;;;13.15;77.75;100263.91;10415378;28;20049;-76
2022/05/24 06:45:44;;;;;;;20.52;10.77;;;;;;;12.80;77.54;100268.03;10415520;28;20400;-77
2022/05/24 06:50:46;;;;;;;18.52;10.80;;;;;;;12.95;77.35;100287.09;10414745;28;20045;-76
2022/05/24 06:55:47;;;;;;;17.58;9.82;;;;;;;12.91;77.40;100286.19;10397987;28;20128;-77
2022/05/24 07:06:12;;;;;;;;;;;;;;;13.04;76.60;100278.50;10414997;28;20045;-77
2022/05/24 07:11:16;;;;;;;20.05;8.52;;;;;;;12.96;75.80;100287.09;10415749;28;19925;-77
2022/05/24 07:16:18;;;;;;;14.82;8.07;;;;;;;13.10;75.52;100294.94;10414467;28;20397;-76
2022/05/24 07:21:19;;;;;;;16.55;8.48;;;;;;;13.32;75.42;100300.22;10414891;28;20057;-75
2022/05/24 07:26:21;;;;;;;11.30;7.07;;;;;;;13.43;74.78;100302.88;10414181;28;20404;-75
2022/05/24 07:31:43;;;;;;;12.75;7.70;;;;;;;13.31;74.33;100299.34;10414979;28;20041;-77
2022/05/24 07:36:45;;;;;;;10.23;6.80;;;;;;;13.31;74.12;100320.03;10414047;28;20046;-76
2022/05/24 07:47:07;;;;;;;9.80;6.82;;;;;;;13.63;73.55;100334.88;10414911;28;20049;-76
2022/05/24 07:52:08;;;;;;;12.02;6.90;;;;;;;13.93;71.34;100345.31;10414802;28;20065;-75
2022/05/24 07:57:10;;;;;;;11.85;6.65;;;;;;;14.07;72.03;100342.78;10413452;28;20107;-78
2022/05/24 08:02:12;;;;;;;12.90;6.78;;;;;;;14.04;70.99;100346.25;10414809;28;20049;-76
2022/05/24 08:07:14;;;;;;;12.13;6.80;;;;;;;14.34;70.17;100344.56;10415875;28;20041;-77
2022/05/24 08:12:15;;;;;;;12.50;6.22;;;;;;;14.89;71.01;100351.53;10421248;28;20430;-76
2022/05/24 08:17:17;;;;;;;10.00;6.35;;;;;;;15.14;68.29;100346.31;10405551;28;20370;-76
2022/05/24 08:22:21;;;;;;;10.25;5.47;;;;;;;15.81;67.21;100339.19;10422391;28;20041;-77
2022/05/24 08:27:22;;;;;;;8.82;4.90;;;;;;;14.98;67.48;100344.63;10421180;28;20045;-77
2022/05/24 08:32:24;;;;;;;8.88;4.75;;;;;;;14.87;66.73;100342.88;10421862;28;20046;-76
2022/05/24 08:37:26;;;;;;;6.18;3.83;;;;;;;15.93;63.16;100345.19;10420374;28;20507;-76
2022/05/24 08:42:52;;;;;;;8.38;3.85;;;;;;;15.74;63.88;100347.88;10421499;28;20049;-77
2022/05/24 08:53:28;;;;;;;6.78;3.72;;;;;;;16.94;61.96;100341.03;10419526;28;20053;-76
2022/05/24 08:58:36;;;;;;;4.00;3.00;;;;;;;17.10;60.40;100346.94;10419308;28;20052;-77
2022/05/24 09:03:38;;;;;;;5.40;3.13;;;;;;;15.68;63.01;100359.13;10420535;28;20041;-77
2022/05/24 09:08:54;;;;;;;8.20;3.80;;;;;;;16.72;59.94;100371.53;10418818;28;20386;-77
2022/05/24 09:14:20;;;;;;;6.70;3.72;;;;;;;16.05;60.26;100367.66;10419457;28;20056;-76
2022/05/24 09:19:26;;;;;;;15.02;5.35;;;;;;;15.10;58.98;100385.25;10418431;28;20045;-76
2022/05/24 09:24:47;;;;;;;6.50;3.90;;;;;;;15.31;60.90;100390.41;10418509;28;20049;-77
2022/05/24 09:30:04;;;;;;;7.20;4.68;;;;;;;15.52;60.74;100394.69;10418108;28;20049;-76
2022/05/24 09:35:10;;;;;;;7.63;4.90;;;;;;;16.94;59.67;100397.44;10419135;28;20041;-77
2022/05/24 09:40:23;;;;;;;10.25;5.90;;;;;;;16.21;59.29;100402.22;10419750;28;20091;-77
2022/05/24 09:45:36;;;;;;;9.35;7.18;;;;;;;15.58;61.20;100400.72;10421649;28;20041;-76
2022/05/24 09:57:11;;;;;;;10.32;8.48;;;;;;;14.63;64.83;100444.84;10416957;28;20044;-76
2022/05/24 10:02:26;;;;;;;9.73;8.57;;;;;;;13.73;70.59;100461.78;10416722;28;20105;-76
2022/05/24 10:07:34;;;;;;;14.27;9.77;;;;;;;14.41;72.19;100451.69;10417812;28;20091;-76
2022/05/24 10:12:50;;;;;;;14.05;10.35;;;;;;;15.44;71.32;100458.75;10417696;28;20401;-76
2022/05/24 10:18:04;;;;;;;13.25;10.82;;;;;;;16.22;66.67;100462.00;10416186;28;20049;-77
2022/05/24 10:23:12;;;;;;;14.77;10.52;;;;;;;15.85;68.35;100470.78;10417210;28;20049;-76
2022/05/24 10:28:45;;;;;;;15.65;10.40;;;;;;;15.08;68.73;100491.59;10415308;28;20045;-76
2022/05/24 10:39:11;;;;;;;12.52;9.27;;;;;;;15.23;68.39;100501.97;10416500;28;20091;-76
2022/05/24 10:44:30;;;;;;;12.70;9.63;;;;;;;15.76;65.06;100496.75;10415157;28;20053;-76
2022/05/24 10:49:42;;;;;;;10.20;7.93;;;;;;;15.42;64.46;100501.13;10414905;28;20041;-76
2022/05/24 10:54:56;;;;;;;7.68;5.32;;;;;;;15.08;63.92;100512.34;10414949;28;20045;-77
2022/05/24 11:00:14;;;;;;;9.32;7.20;;;;;;;14.89;64.71;100514.09;10414797;28;20045;-76
2022/05/24 11:05:42;;;;;;;9.60;7.35;;;;;;;15.03;66.87;100516.69;10398021;28;20056;-76
2022/05/24 11:10:48;;;;;;;8.77;5.50;;;;;;;15.37;64.28;100529.69;10415992;28;20050;-76
2022/05/24 11:15:54;;;;;;;5.68;3.00;;;;;;;15.61;62.38;100533.13;10414089;28;20048;-76
2022/05/24 11:21:37;;;;;;;7.53;2.90;;;;;;;16.49;61.12;100530.34;10414008;28;20099;-75
2022/05/24 11:26:53;;;;;;;3.42;2.67;;;;;;;16.30;60.58;100534.75;10409770;28;20038;-76
2022/05/24 11:32:02;;;;;;;2.97;2.03;;;;;;;16.48;58.27;100547.69;10392593;28;20045;-76
2022/05/24 11:37:04;;;;;;;2.55;1.80;;;;;;;16.06;63.46;100546.94;10408697;28;20038;-76
2022/05/24 11:42:24;;;;;;;2.92;1.48;;;;;;;15.85;62.22;100556.50;10415188;28;20053;-77
2022/05/24 11:47:34;;;;;;;1.83;1.00;;;;;;;15.83;61.26;100570.38;10405868;28;20041;-77
2022/05/24 11:53:01;;;;;;;1.38;0.80;;;;;;;15.75;59.65;100578.13;10410426;28;20516;-76
2022/05/24 11:58:21;;;;;;;1.33;0.70;;;;;;;16.33;59.12;100581.53;10401478;28;20489;-76
2022/05/24 12:09:17;;;;;;;1.27;0.80;;;;;;;16.72;56.30;100590.03;10396702;28;20053;-75
2022/05/24 12:14:28;;;;;;;2.90;0.75;;;;;;;16.59;56.96;100598.75;10380057;28;20436;-76
2022/05/24 12:19:40;;;;;;;1.27;0.75;;;;;;;17.35;54.86;100595.81;10381063;28;20104;-76
2022/05/24 12:24:48;;;;;;;0.60;0.60;;;;;;;18.21;56.30;100595.06;10396276;28;20048;-76
2022/05/24 12:29:54;;;;;;;2.40;1.08;;;;;;;17.44;56.17;100604.41;10379349;28;20046;-76
2022/05/24 12:35:05;;;;;;;2.97;1.40;;;;;;;16.70;57.41;100624.72;10391834;28;20061;-76
2022/05/24 12:40:19;;;;;;;1.25;0.60;;;;;;;15.70;60.81;100643.06;10421564;28;20034;-76
2022/05/24 12:45:34;;;;;;;3.45;0.60;;;;;;;15.85;57.93;100646.56;10419854;28;20091;-75
2022/05/24 12:50:39;;;;;;;2.22;0.70;;;;;;;16.36;59.68;100637.84;10419883;28;20041;-76
2022/05/24 12:55:56;;;;;;;1.25;0.70;;;;;;;15.48;59.42;100647.38;10417853;28;20107;-76
2022/05/24 13:01:09;;;;;;;0.73;0.45;;;;;;;14.74;63.12;100647.16;10419060;28;20049;-76
2022/05/24 13:06:30;;;;;;;3.20;0.60;;;;;;;15.12;63.41;100638.66;10414565;28;20049;-76
2022/05/24 13:11:31;;;;;;;;;;;;;;;16.22;58.81;100625.75;10419313;28;20515;-77
2022/05/24 13:16:34;;;;;;;2.38;1.00;;;;;;;16.77;59.70;100632.53;10418583;28;20265;-76
2022/05/24 13:21:35;;;;;;;1.60;0.70;;;;;;;17.07;55.74;100630.69;10417957;28;20134;-76
2022/05/24 13:26:57;;;;;;;1.52;0.73;;;;;;;17.61;55.38;100637.25;10418285;28;20045;-76
2022/05/24 13:37:52;;;;;;;1.40;1.05;;;;;;;17.19;55.73;100644.47;10376621;28;20060;-76
2022/05/24 13:42:57;;;;;;;3.38;1.23;;;;;;;17.78;56.57;100639.75;10416499;28;20550;-75
2022/05/24 13:48:21;;;;;;;3.28;1.50;;;;;;;18.27;57.33;100641.09;10418179;28;20400;-76
2022/05/24 13:53:28;;;;;;;3.10;1.40;;;;;;;17.90;52.99;100647.47;10416911;28;20050;-75
2022/05/24 13:58:36;;;;;;;3.13;0.98;;;;;;;17.40;53.65;100643.50;10416742;28;20123;-75
2022/05/24 14:03:47;;;;;;;3.25;1.00;;;;;;;17.19;54.53;100641.88;10418135;28;20513;-76
2022/05/24 14:08:53;;;;;;;1.23;0.82;;;;;;;17.35;53.73;100650.50;10402524;28;20038;-87
2022/05/24 14:13:57;;;;;;;2.40;0.88;;;;;;;17.38;55.07;100653.94;10418533;28;20053;-87
2022/05/24 14:18:59;;;;;;;2.85;0.90;;;;;;;17.02;54.18;100671.47;10417785;28;20457;-82
2022/05/24 14:24:01;;;;;;;2.03;1.20;;;;;;;17.26;54.24;100664.41;10418293;28;20109;-84
2022/05/24 14:29:02;;;;;;;3.38;1.70;;;;;;;17.40;52.50;100685.16;10418594;28;20555;-84
2022/05/24 14:34:10;;;;;;;3.08;1.73;;;;;;;16.78;56.23;100693.22;10405020;28;20489;-83
2022/05/24 14:39:13;;;;;;;4.40;1.73;;;;;;;16.52;57.85;100717.56;10407551;28;20041;-84
2022/05/24 14:44:26;;;;;;;3.58;0.93;;;;;;;16.81;54.14;100725.28;10413510;28;20049;-83
2022/05/24 14:49:28;;;;;;;1.38;0.70;;;;;;;17.23;50.29;100722.56;10406346;28;20492;-83
2022/05/24 14:54:44;;;;;;;1.92;0.82;;;;;;;17.68;50.15;100730.16;10405713;28;20041;-84
2022/05/24 14:59:47;;;;;;;3.33;2.08;;;;;;;17.49;56.48;100736.31;10402774;28;20045;-86
2022/05/24 15:04:50;;;;;;;3.00;1.38;;;;;;;17.95;51.38;100725.66;10386829;28;20045;-84
2022/05/24 15:15:20;;;;;;;3.72;1.95;;;;;;;17.33;56.64;100727.75;10411777;28;20091;-86
2022/05/24 15:20:24;;;;;;;3.45;2.40;;;;;;;17.21;59.45;100733.88;10409774;28;20057;-87
2022/05/24 15:25:34;;;;;;;3.65;2.75;;;;;;;17.21;59.00;100731.25;10409276;28;20056;-80
2022/05/24 15:30:39;;;;;;;4.35;3.40;;;;;;;17.17;60.55;100737.34;10409519;28;20692;-85
2022/05/24 15:35:45;;;;;;;3.97;3.22;;;;;;;17.35;61.45;100732.06;10411165;28;20473;-87
2022/05/24 15:40:47;;;;;;;5.15;3.92;;;;;;;16.87;61.90;100736.53;10409731;28;20397;-84
2022/05/24 15:45:51;;;;;;;4.43;3.70;;;;;;;16.60;63.28;100747.03;10410138;28;20054;-86
2022/05/24 15:50:53;;;;;;;5.57;4.15;;;;;;;16.30;64.43;100747.91;10408208;28;20449;-84
2022/05/24 15:55:54;;;;;;;6.75;4.65;;;;;;;16.43;63.63;100753.97;10407952;28;20080;-85
2022/05/24 16:00:56;;;;;;;4.90;4.30;;;;;;;16.77;61.63;100753.91;10407953;28;20536;-86
2022/05/24 16:11:23;;;;;;;6.38;4.80;;;;;;;17.21;60.42;100754.69;10421139;28;20049;-87
2022/05/24 16:16:25;;;;;;;7.03;4.47;;;;;;;17.53;59.80;100751.94;10408222;28;20054;-85
2022/05/24 16:21:29;;;;;;;0.98;0.88;;;;;;;18.02;50.49;100755.16;10411829;28;20079;-84
2022/05/24 16:26:31;;;;;;;2.63;0.90;;;;;;;17.66;49.14;100770.09;10413769;28;20038;-84
2022/05/24 16:31:33;;;;;;;3.45;1.83;;;;;;;17.16;52.78;100769.47;10455976;28;20065;-83
2022/05/24 16:36:35;;;;;;;4.45;1.55;;;;;;;16.83;53.13;100779.06;10435984;28;20059;-83
2022/05/24 16:41:37;;;;;;;2.53;1.48;;;;;;;16.74;54.82;100785.16;10451494;28;20080;-82
2022/05/24 16:46:38;;;;;;;4.95;1.30;;;;;;;16.48;52.67;100797.31;10440291;28;20559;-83
2022/05/24 16:52:03;;;;;;;7.18;1.52;;;;;;;16.40;54.73;100812.03;10416573;28;20041;-86
2022/05/24 17:02:25;;;;;;;1.83;0.70;;;;;;;15.19;59.58;100832.44;10414858;28;20050;-85
2022/05/24 17:07:27;;;;;;;1.25;0.60;;;;;;;15.29;57.72;100827.28;10392238;28;20053;-84
2022/05/24 17:12:29;;;;;;;1.60;1.10;;;;;;;15.00;60.68;100833.19;10413336;28;20104;-84
2022/05/24 17:17:31;;;;;;;2.28;1.25;;;;;;;15.23;61.15;100838.50;10414529;28;20484;-84
2022/05/24 17:22:33;;;;;;;1.95;0.90;;;;;;;15.57;58.65;100843.00;10414584;28;20049;-85
2022/05/24 17:27:35;;;;;;;1.95;0.90;;;;;;;15.73;56.65;100834.41;10413784;28;20049;-87
2022/05/24 17:32:49;;;;;;;1.23;1.10;;;;;;;15.88;57.72;100840.53;10418033;28;20547;-85
2022/05/24 17:37:51;;;;;;;3.60;1.42;;;;;;;15.55;58.49;100846.44;10416040;28;20068;-84
2022/05/24 17:42:53;;;;;;;1.75;1.60;;;;;;;15.37;59.93;100851.56;10415507;28;20049;-84
2022/05/24 17:47:55;;;;;;;2.63;1.80;;;;;;;15.18;62.21;100859.22;10413093;28;20128;-86
2022/05/24 17:52:56;;;;;;;4.35;2.10;;;;;;;15.28;62.57;100861.88;10396442;28;20057;-85
2022/05/24 17:57:59;;;;;;;2.13;1.83;;;;;;;15.50;62.57;100858.56;10411369;28;20497;-85
2022/05/24 18:03:01;;;;;;;3.53;2.25;;;;;;;15.37;62.81;100854.16;10411539;28;20052;-85
2022/05/24 18:08:04;;;;;;;3.78;2.17;;;;;;;15.32;63.39;100858.44;10410755;28;20508;-84
2022/05/24 18:13:07;;;;;;;3.35;2.30;;;;;;;15.62;62.92;100852.53;10413340;28;20103;-85
2022/05/24 18:18:10;;;;;;;2.67;2.20;;;;;;;15.28;63.74;100854.97;10394507;28;20045;-86
2022/05/24 18:23:15;;;;;;;3.65;2.30;;;;;;;15.46;63.21;100866.31;10411632;28;20049;-86
2022/05/24 18:33:37;;;;;;;4.80;2.83;;;;;;;15.63;63.41;100868.97;10410350;28;20061;-86
2022/05/24 18:38:38;;;;;;;6.55;2.53;;;;;;;15.55;64.63;100867.22;10414858;28;20555;-86
2022/05/24 18:43:46;;;;;;;2.85;2.47;;;;;;;15.39;65.01;100868.88;10411805;28;20042;-85
2022/05/24 18:48:48;;;;;;;4.47;2.33;;;;;;;15.36;65.42;100870.59;10411390;28;20118;-86
2022/05/24 18:53:49;;;;;;;3.47;2.55;;;;;;;15.27;66.21;100875.72;10413204;28;20096;-87
2022/05/24 18:58:51;;;;;;;4.53;2.40;;;;;;;15.00;67.49;100888.53;10414987;28;20546;-87
2022/05/24 19:03:53;;;;;;;3.70;3.00;;;;;;;14.84;68.29;100897.91;10413784;28;20056;-87
2022/05/24 19:08:55;;;;;;;4.82;3.17;;;;;;;14.73;68.20;100904.72;10412956;28;20046;-86
2022/05/24 19:13:56;;;;;;;3.88;3.30;;;;;;;14.64;68.08;100904.59;10397250;28;20077;-87
2022/05/24 19:18:58;;;;;;;4.20;3.10;;;;;;;14.34;68.68;100912.09;10413727;28;20041;-86
2022/05/24 19:24:00;;;;;;;4.05;2.95;;;;;;;14.18;69.28;100931.81;10396874;28;20405;-86
2022/05/24 19:29:57;;;;;;;3.60;2.65;;;;;;;14.21;69.01;100942.19;10414200;28;20091;-87
2022/05/24 19:34:59;;;;;;;5.55;3.20;;;;;;;14.04;68.75;100954.94;10413725;28;20471;-86
2022/05/24 19:45:22;;;;;;;3.60;2.88;;;;;;;13.62;69.83;100982.88;10413525;28;20053;-86
2022/05/24 19:50:31;;;;;;;3.80;2.85;;;;;;;13.45;69.86;100989.50;10413266;28;20038;-86
2022/05/24 19:55:33;;;;;;;5.90;2.80;;;;;;;13.55;68.55;101000.91;10412989;28;20517;-85
2022/05/24 20:00:38;;;;;;;4.65;2.95;;;;;;;13.22;70.82;101007.22;10409923;28;20504;-86
2022/05/24 20:06:12;;;;;;;3.40;2.60;;;;;;;13.30;70.11;101022.03;10409810;28;20141;-86
2022/05/24 20:11:13;;;;;;;2.97;2.60;;;;;;;13.10;70.21;101028.59;10417968;28;20068;-87
2022/05/24 20:16:15;;;;;;;4.63;3.13;;;;;;;13.13;72.03;101028.66;10393172;28;20049;-86
2022/05/24 20:21:17;;;;;;;4.68;3.15;;;;;;;13.00;72.85;101041.34;10403768;28;20053;-86
2022/05/24 20:26:20;;;;;;;4.50;2.85;;;;;;;12.43;75.75;101041.97;10378839;28;20080;-85
2022/05/24 20:31:21;;;;;;;4.10;3.10;;;;;;;12.14;76.58;101047.41;10396565;28;20046;-85
2022/05/24 20:36:23;;;;;;;4.40;3.20;;;;;;;12.37;75.36;101053.94;10422040;28;20056;-86
2022/05/24 20:41:25;;;;;;;7.10;4.18;;;;;;;12.34;74.16;101058.16;10403586;28;20046;-85
2022/05/24 20:46:26;;;;;;;5.95;3.85;;;;;;;12.36;73.75;101059.94;10423781;28;20049;-85
2022/05/24 20:51:28;;;;;;;4.30;3.05;;;;;;;12.48;73.20;101063.59;10421806;28;20061;-86
2022/05/24 20:56:30;;;;;;;4.38;3.28;;;;;;;12.65;71.86;101066.56;10420530;28;20049;-86
2022/05/24 21:01:32;;;;;;;4.30;3.22;;;;;;;12.53;72.18;101069.75;10460613;28;20095;-86
2022/05/24 21:06:36;;;;;;;4.30;3.17;;;;;;;12.34;72.56;101071.94;10460756;28;20496;-86
2022/05/24 21:11:38;;;;;;;5.93;2.70;;;;;;;12.15;73.13;101077.56;10443541;28;20071;-86
2022/05/24 21:16:39;;;;;;;3.38;2.60;;;;;;;12.12;73.03;101086.13;10458276;28;20515;-86
2022/05/24 21:21:41;;;;;;;4.28;3.22;;;;;;;12.03;73.81;101076.44;10446293;28;20048;-80
2022/05/24 21:32:04;;;;;;;4.20;3.30;;;;;;;11.93;73.76;101071.00;10411526;28;20065;-80
2022/05/24 21:37:06;;;;;;;4.50;3.30;;;;;;;11.76;73.78;101071.50;10413385;28;20061;-80
2022/05/24 21:42:07;;;;;;;5.10;3.47;;;;;;;11.82;74.35;101060.41;10412455;28;20061;-80
2022/05/24 21:47:10;;;;;;;4.78;3.28;;;;;;;11.71;74.13;101063.63;10411422;28;20053;-80
2022/05/24 21:52:12;;;;;;;5.70;3.55;;;;;;;11.57;74.87;101080.50;10415817;28;20045;-80
2022/05/24 21:57:14;;;;;;;8.07;3.90;;;;;;;11.22;76.47;101080.44;10418284;28;20111;-80
2022/05/24 22:02:16;;;;;;;6.68;4.10;;;;;;;11.38;76.38;101085.19;10428778;28;20053;-80
2022/05/24 22:07:18;;;;;;;6.32;4.03;;;;;;;11.56;75.24;101087.34;10414684;28;20519;-80
2022/05/24 22:12:27;;;;;;;5.20;3.80;;;;;;;11.61;75.51;101092.63;10416090;28;20053;-80
2022/05/24 22:17:28;;;;;;;5.15;4.28;;;;;;;11.10;77.10;101099.03;10417209;28;20485;-80
2022/05/24 22:22:30;;;;;;;6.10;4.43;;;;;;;11.14;77.32;101095.75;10415480;28;20481;-80
2022/05/24 22:27:32;;;;;;;6.63;4.70;;;;;;;11.45;76.14;101101.69;10416201;28;20542;-80
2022/05/24 22:32:33;;;;;;;7.35;5.28;;;;;;;11.54;75.62;101108.78;10415570;28;20049;-80
2022/05/24 22:37:35;;;;;;;8.38;5.53;;;;;;;11.43;75.77;101114.53;10415063;28;20042;-79
2022/05/24 22:42:37;;;;;;;9.98;6.13;;;;;;;11.45;75.45;101118.88;10397807;28;20493;-80
2022/05/24 22:47:39;;;;;;;10.15;6.25;;;;;;;11.55;76.02;101119.13;10415641;28;20050;-80
2022/05/24 22:52:42;;;;;;;8.27;5.88;;;;;;;11.38;75.89;101136.78;10414931;28;20053;-80
2022/05/24 22:57:47;;;;;;;7.65;5.65;;;;;;;11.26;76.12;101139.03;10415131;28;20042;-80
2022/05/24 23:02:48;;;;;;;9.88;6.55;;;;;;;10.89;78.04;101145.75;10414486;28;20622;-80
2022/05/24 23:07:50;;;;;;;10.98;7.22;;;;;;;10.71;78.53;101152.13;10413870;28;20416;-80
2022/05/24 23:12:51;;;;;;;8.10;6.32;;;;;;;10.72;79.23;101153.88;10412503;28;20045;-80
2022/05/24 23:17:53;;;;;;;9.63;6.88;;;;;;;10.78;79.03;101153.19;10414166;28;20037;-80
2022/05/24 23:22:55;;;;;;;13.57;7.07;;;;;;;10.63;79.78;101164.78;10413048;28;20049;-80
2022/05/24 23:27:56;;;;;;;12.85;7.40;;;;;;;10.69;79.70;101169.22;10412235;28;20049;-80
2022/05/24 23:32:58;;;;;;;11.77;7.60;;;;;;;10.65;79.83;101172.56;10414695;28;20041;-79
2022/05/24 23:38:00;;;;;;;10.75;7.13;;;;;;;10.69;80.07;101178.66;10414497;28;20099;-80
2022/05/24 23:43:03;;;;;;;11.85;7.82;;;;;;;10.56;80.81;101177.41;10421687;28;20103;-80
2022/05/24 23:48:05;;;;;;;11.52;8.75;;;;;;;10.64;80.13;101186.25;10421084;28;20049;-79
2022/05/24 23:53:07;;;;;;;11.65;9.20;;;;;;;10.52;81.27;101185.91;10422233;28;20053;-80
2022/05/24 23:58:09;;;;;;;12.55;8.70;;;;;;;10.48;81.22;101180.63;10422225;28;20045;-80
